createdAt,value
2018-07-08T00:01:02.133Z,100457.20
2018-07-08T00:03:29.951Z,100460.08
2018-07-08T00:05:57.623Z,100466.03
2018-07-08T00:08:25.318Z,100466.61
2018-07-08T00:10:55.574Z,100472.67
2018-07-08T00:13:23.377Z,100474.59
2018-07-08T00:15:51.053Z,100471.70
2018-07-08T00:18:20.011Z,100472.13
2018-07-08T00:20:48.291Z,100468.36
2018-07-08T00:23:15.958Z,100472.19
2018-07-08T00:25:43.909Z,100470.86
2018-07-08T00:28:11.610Z,100470.78
2018-07-08T00:30:39.353Z,100476.75
2018-07-08T00:33:07.517Z,100478.30
2018-07-08T00:35:35.147Z,100479.39
2018-07-08T00:38:02.921Z,100476.15
2018-07-08T00:40:30.798Z,100471.25
2018-07-08T00:42:58.499Z,100475.69
2018-07-08T00:45:26.355Z,100473.55
2018-07-08T00:47:54.047Z,100472.22
2018-07-08T00:50:21.868Z,100476.72
2018-07-08T00:52:49.640Z,100471.30
2018-07-08T00:55:17.291Z,100472.22
2018-07-08T00:57:44.951Z,100469.56
2018-07-08T01:00:29.413Z,100469.39
2018-07-08T01:02:57.055Z,100470.78
2018-07-08T01:05:24.759Z,100470.20
2018-07-08T01:07:52.513Z,100467.25
2018-07-08T01:10:33.942Z,100473.55
2018-07-08T01:13:02.063Z,100477.95
2018-07-08T01:15:29.771Z,100476.30
2018-07-08T01:17:57.410Z,100468.72
2018-07-08T01:20:25.066Z,100474.45
2018-07-08T01:22:53.147Z,100474.64
2018-07-08T01:25:38.365Z,100476.31
2018-07-08T01:28:06.027Z,100472.55
2018-07-08T01:30:35.062Z,100477.68
2018-07-08T01:33:03.062Z,100471.41
2018-07-08T01:35:30.722Z,100466.61
2018-07-08T01:37:58.334Z,100475.91
2018-07-08T01:40:26.030Z,100473.63
2018-07-08T01:42:53.764Z,100472.55
2018-07-08T01:45:21.461Z,100469.77
2018-07-08T01:47:49.126Z,100469.83
2018-07-08T01:50:16.790Z,100475.30
2018-07-08T01:52:44.416Z,100478.55
2018-07-08T01:55:12.927Z,100470.84
2018-07-08T01:57:40.593Z,100475.13
2018-07-08T02:00:08.244Z,100473.05
2018-07-08T02:02:35.902Z,100471.91
2018-07-08T02:05:03.748Z,100469.83
2018-07-08T02:07:31.442Z,100463.43
2018-07-08T02:09:59.075Z,100470.25
2018-07-08T02:12:26.697Z,100471.09
2018-07-08T02:14:54.392Z,100472.28
2018-07-08T02:17:22.092Z,100468.00
2018-07-08T02:19:49.797Z,100470.14
2018-07-08T02:22:17.765Z,100459.53
2018-07-08T02:24:45.452Z,100460.29
2018-07-08T02:27:13.179Z,100459.51
2018-07-08T02:29:40.895Z,100459.70
2018-07-08T02:32:08.498Z,100456.42
2018-07-08T02:34:36.258Z,100457.96
2018-07-08T02:37:03.897Z,100457.29
2018-07-08T02:39:31.658Z,100454.82
2018-07-08T02:41:59.780Z,100457.09
2018-07-08T02:44:27.437Z,100454.84
2018-07-08T02:46:55.535Z,100460.29
2018-07-08T02:49:23.278Z,100456.09
2018-07-08T02:51:51.036Z,100451.52
2018-07-08T02:54:19.513Z,100452.70
2018-07-08T02:56:47.119Z,100448.74
2018-07-08T02:59:14.797Z,100449.66
2018-07-08T03:01:42.486Z,100454.27
2018-07-08T03:04:10.081Z,100458.86
2018-07-08T03:06:37.691Z,100457.16
2018-07-08T03:09:06.939Z,100462.16
2018-07-08T03:11:34.635Z,100468.06
2018-07-08T03:14:02.400Z,100473.89
2018-07-08T03:16:30.144Z,100475.22
2018-07-08T03:18:57.899Z,100473.30
2018-07-08T03:21:25.646Z,100473.70
2018-07-08T03:23:53.466Z,100470.36
2018-07-08T03:26:21.118Z,100475.76
2018-07-08T03:28:48.718Z,100475.34
2018-07-08T03:31:16.433Z,100483.00
2018-07-08T03:33:44.173Z,100479.95
2018-07-08T03:36:11.845Z,100477.31
2018-07-08T03:38:39.614Z,100477.82
2018-07-08T03:41:07.382Z,100477.10
2018-07-08T03:43:35.121Z,100479.24
2018-07-08T03:46:02.965Z,100478.94
2018-07-08T03:48:30.612Z,100473.94
2018-07-08T03:50:58.263Z,100481.28
2018-07-08T03:53:25.920Z,100480.05
2018-07-08T03:55:53.727Z,100470.98
2018-07-08T03:58:21.344Z,100471.00
2018-07-08T04:00:48.966Z,100471.59
2018-07-08T04:03:16.779Z,100466.80
2018-07-08T04:05:46.409Z,100473.85
2018-07-08T04:08:14.006Z,100471.50
2018-07-08T04:10:41.804Z,100471.89
2018-07-08T04:13:09.412Z,100464.34
2018-07-08T04:15:37.018Z,100458.61
2018-07-08T04:18:06.678Z,100457.38
2018-07-08T04:20:34.646Z,100462.23
2018-07-08T04:23:02.539Z,100463.05
2018-07-08T04:25:30.534Z,100460.90
2018-07-08T04:27:58.238Z,100470.31
2018-07-08T04:30:26.266Z,100471.70
2018-07-08T04:32:53.839Z,100474.66
2018-07-08T04:35:21.562Z,100473.21
2018-07-08T04:37:49.153Z,100477.55
2018-07-08T04:40:16.740Z,100477.14
2018-07-08T04:42:44.398Z,100476.32
2018-07-08T04:45:12.074Z,100484.72
2018-07-08T04:47:39.730Z,100492.25
2018-07-08T04:50:07.512Z,100500.12
2018-07-08T04:52:35.122Z,100496.09
2018-07-08T04:55:02.753Z,100494.20
2018-07-08T04:57:31.490Z,100493.41
2018-07-08T04:59:59.146Z,100494.98
2018-07-08T05:02:26.837Z,100499.37
2018-07-08T05:04:54.424Z,100508.52
2018-07-08T05:07:22.074Z,100505.61
2018-07-08T05:09:49.659Z,100515.00
2018-07-08T05:12:17.375Z,100513.27
2018-07-08T05:14:45.094Z,100508.06
2018-07-08T05:17:12.919Z,100516.98
2018-07-08T05:19:40.887Z,100511.44
2018-07-08T05:22:08.624Z,100513.61
2018-07-08T05:24:36.247Z,100510.61
2018-07-08T05:27:03.918Z,100508.33
2018-07-08T05:29:32.598Z,100516.58
2018-07-08T05:32:01.067Z,100516.97
2018-07-08T05:34:28.718Z,100512.58
2018-07-08T05:36:56.298Z,100513.66
2018-07-08T05:39:23.949Z,100513.92
2018-07-08T05:41:51.614Z,100517.22
2018-07-08T05:44:19.486Z,100518.62
2018-07-08T05:46:47.106Z,100518.09
2018-07-08T05:49:14.877Z,100522.34
2018-07-08T05:51:42.471Z,100517.88
2018-07-08T05:54:10.125Z,100517.44
2018-07-08T05:56:37.746Z,100519.44
2018-07-08T05:59:05.477Z,100523.08
2018-07-08T06:01:33.102Z,100522.17
2018-07-08T06:04:00.791Z,100519.11
2018-07-08T06:06:28.447Z,100518.59
2018-07-08T06:08:56.078Z,100518.36
2018-07-08T06:11:23.789Z,100520.98
2018-07-08T06:13:51.731Z,100515.81
2018-07-08T06:16:19.467Z,100514.47
2018-07-08T06:18:47.146Z,100515.06
2018-07-08T06:21:14.857Z,100516.20
2018-07-08T06:23:42.646Z,100512.53
2018-07-08T06:26:10.415Z,100513.19
2018-07-08T06:28:38.052Z,100515.69
2018-07-08T06:31:05.814Z,100521.34
2018-07-08T06:33:33.551Z,100514.68
2018-07-08T06:36:01.199Z,100514.56
2018-07-08T06:38:28.837Z,100514.13
2018-07-08T06:40:56.523Z,100516.40
2018-07-08T06:43:24.094Z,100513.40
2018-07-08T06:45:51.770Z,100513.56
2018-07-08T06:48:19.373Z,100518.98
2018-07-08T06:50:47.233Z,100508.37
2018-07-08T06:53:14.874Z,100509.43
2018-07-08T06:55:42.550Z,100506.23
2018-07-08T06:58:10.287Z,100505.14
2018-07-08T07:00:37.918Z,100512.39
2018-07-08T07:03:05.641Z,100515.51
2018-07-08T07:05:33.374Z,100509.92
2018-07-08T07:08:01.002Z,100518.47
2018-07-08T07:10:34.373Z,100518.02
2018-07-08T07:13:02.298Z,100511.37
2018-07-08T07:15:29.978Z,100516.41
2018-07-08T07:17:57.649Z,100516.89
2018-07-08T07:20:25.277Z,100522.00
2018-07-08T07:22:53.021Z,100516.36
2018-07-08T07:25:20.729Z,100515.59
2018-07-08T07:27:48.371Z,100514.36
2018-07-08T07:30:16.015Z,100513.97
2018-07-08T07:32:43.668Z,100517.41
2018-07-08T07:35:11.446Z,100520.03
2018-07-08T07:37:39.203Z,100515.28
2018-07-08T07:40:06.866Z,100514.80
2018-07-08T07:42:34.547Z,100515.09
2018-07-08T07:45:02.206Z,100520.53
2018-07-08T07:47:30.907Z,100512.13
2018-07-08T07:49:58.518Z,100513.77
2018-07-08T07:52:27.081Z,100511.33
2018-07-08T07:54:54.916Z,100501.98
2018-07-08T07:57:22.625Z,100503.05
2018-07-08T07:59:50.342Z,100506.51
2018-07-08T08:02:18.049Z,100508.12
2018-07-08T08:04:45.667Z,100499.27
2018-07-08T08:07:13.362Z,100497.69
2018-07-08T08:09:41.086Z,100496.89
2018-07-08T08:12:08.721Z,100494.24
2018-07-08T08:14:36.435Z,100500.17
2018-07-08T08:17:04.138Z,100501.50
2018-07-08T08:19:31.878Z,100500.18
2018-07-08T08:21:59.521Z,100496.14
2018-07-08T08:24:27.238Z,100497.49
2018-07-08T08:26:54.867Z,100491.55
2018-07-08T08:29:22.566Z,100492.34
2018-07-08T08:31:50.218Z,100489.95
2018-07-08T08:34:51.747Z,100489.13
2018-07-08T08:37:21.352Z,100494.78
2018-07-08T08:39:50.218Z,100496.40
2018-07-08T08:42:17.829Z,100497.73
2018-07-08T08:44:45.970Z,100490.46
2018-07-08T08:47:14.229Z,100492.62
2018-07-08T08:49:41.871Z,100491.00
2018-07-08T08:52:10.166Z,100489.67
2018-07-08T08:54:38.568Z,100492.88
2018-07-08T08:57:06.231Z,100485.88
2018-07-08T08:59:34.090Z,100490.47
2018-07-08T09:02:01.773Z,100487.22
2018-07-08T09:04:29.401Z,100487.73
2018-07-08T09:06:57.282Z,100482.09
2018-07-08T09:09:24.939Z,100485.33
2018-07-08T09:11:52.614Z,100489.94
2018-07-08T09:14:20.890Z,100486.98
2018-07-08T09:16:48.642Z,100479.14
2018-07-08T09:19:16.295Z,100483.09
2018-07-08T09:21:43.959Z,100480.66
2018-07-08T09:24:11.646Z,100484.69
2018-07-08T09:26:39.263Z,100484.93
2018-07-08T09:29:06.867Z,100480.91
2018-07-08T09:31:34.495Z,100486.54
2018-07-08T09:34:02.189Z,100486.55
2018-07-08T09:36:29.859Z,100484.05
2018-07-08T09:38:57.745Z,100485.78
2018-07-08T09:41:25.475Z,100484.87
2018-07-08T09:43:53.111Z,100477.87
2018-07-08T09:46:20.795Z,100480.59
2018-07-08T09:48:48.412Z,100481.14
2018-07-08T09:51:16.830Z,100486.97
2018-07-08T09:53:44.508Z,100469.83
2018-07-08T09:56:12.186Z,100477.20
2018-07-08T09:58:39.818Z,100475.27
2018-07-08T10:01:07.590Z,100475.69
2018-07-08T10:03:35.235Z,100472.27
2018-07-08T10:06:04.155Z,100471.20
2018-07-08T10:08:32.432Z,100468.77
2018-07-08T10:11:00.154Z,100468.97
2018-07-08T10:13:27.902Z,100464.69
2018-07-08T10:15:55.638Z,100465.53
2018-07-08T10:18:23.346Z,100454.12
2018-07-08T10:20:50.970Z,100465.89
2018-07-08T10:23:18.793Z,100460.13
2018-07-08T10:25:46.409Z,100457.20
2018-07-08T10:28:18.051Z,100455.64
2018-07-08T10:30:45.859Z,100450.42
2018-07-08T10:33:14.868Z,100453.64
2018-07-08T10:36:00.184Z,100455.80
2018-07-08T10:38:27.972Z,100457.25
2018-07-08T10:40:55.696Z,100451.50
2018-07-08T10:43:24.480Z,100463.52
2018-07-08T10:45:52.042Z,100452.42
2018-07-08T10:48:20.047Z,100459.73
2018-07-08T10:50:47.665Z,100456.08
2018-07-08T10:53:15.366Z,100450.27
2018-07-08T10:55:43.107Z,100450.39
2018-07-08T10:58:11.273Z,100447.95
2018-07-08T11:00:38.914Z,100452.42
2018-07-08T11:03:06.702Z,100456.08
2018-07-08T11:05:34.382Z,100449.64
2018-07-08T11:08:02.027Z,100442.49
2018-07-08T11:10:35.405Z,100455.72
2018-07-08T11:13:03.073Z,100444.67
2018-07-08T11:15:30.773Z,100437.09
2018-07-08T11:17:58.706Z,100441.64
2018-07-08T11:20:26.356Z,100439.45
2018-07-08T11:22:54.059Z,100448.45
2018-07-08T11:25:21.738Z,100446.04
2018-07-08T11:27:49.342Z,100442.91
2018-07-08T11:30:17.022Z,100438.70
2018-07-08T11:32:44.617Z,100435.39
2018-07-08T11:35:12.228Z,100435.64
2018-07-08T11:37:39.857Z,100438.52
2018-07-08T11:40:07.482Z,100430.48
2018-07-08T11:42:35.085Z,100436.58
2018-07-08T11:45:02.946Z,100427.61
2018-07-08T11:47:31.617Z,100434.78
2018-07-08T11:49:59.416Z,100434.89
2018-07-08T11:52:26.971Z,100429.61
2018-07-08T11:54:54.872Z,100427.69
2018-07-08T11:57:22.515Z,100425.98
2018-07-08T11:59:50.217Z,100426.94
2018-07-08T12:02:18.017Z,100428.03
2018-07-08T12:04:45.631Z,100421.55
2018-07-08T12:07:13.409Z,100425.53
2018-07-08T12:09:41.082Z,100419.87
2018-07-08T12:12:08.726Z,100418.19
2018-07-08T12:14:36.370Z,100419.08
2018-07-08T12:17:04.005Z,100415.04
2018-07-08T12:19:31.640Z,100415.79
2018-07-08T12:21:59.317Z,100416.61
2018-07-08T12:24:26.941Z,100425.58
2018-07-08T12:26:54.730Z,100423.76
2018-07-08T12:29:22.354Z,100423.72
2018-07-08T12:31:50.019Z,100413.92
2018-07-08T12:34:17.616Z,100415.23
2018-07-08T12:36:45.326Z,100415.23
2018-07-08T12:39:13.449Z,100415.78
2018-07-08T12:41:41.503Z,100416.87
2018-07-08T12:44:09.194Z,100422.94
2018-07-08T12:46:37.133Z,100415.86
2018-07-08T12:49:04.756Z,100412.80
2018-07-08T12:51:32.453Z,100414.84
2018-07-08T12:54:00.107Z,100409.48
2018-07-08T12:56:27.737Z,100402.95
2018-07-08T12:58:55.808Z,100404.17
2018-07-08T13:01:23.477Z,100392.98
2018-07-08T13:03:51.486Z,100395.70
2018-07-08T13:06:19.189Z,100395.80
2018-07-08T13:08:46.789Z,100397.55
2018-07-08T13:11:15.854Z,100393.20
2018-07-08T13:13:43.562Z,100394.92
2018-07-08T13:16:11.175Z,100389.54
2018-07-08T13:18:39.105Z,100397.09
2018-07-08T13:21:06.846Z,100391.55
2018-07-08T13:23:34.542Z,100396.70
2018-07-08T13:26:02.187Z,100395.68
2018-07-08T13:28:29.819Z,100388.95
2018-07-08T13:30:57.569Z,100393.95
2018-07-08T13:33:25.802Z,100388.70
2018-07-08T13:35:53.421Z,100391.55
2018-07-08T13:38:21.149Z,100394.94
2018-07-08T13:40:48.814Z,100392.20
2018-07-08T13:43:16.567Z,100388.47
2018-07-08T13:45:44.314Z,100394.56
2018-07-08T13:48:12.018Z,100384.54
2018-07-08T13:50:40.035Z,100388.84
2018-07-08T13:53:07.814Z,100385.30
2018-07-08T13:55:35.461Z,100379.14
2018-07-08T13:58:03.148Z,100377.73
2018-07-08T14:00:30.783Z,100384.07
2018-07-08T14:02:58.466Z,100391.22
2018-07-08T14:05:26.126Z,100378.48
2018-07-08T14:07:54.082Z,100386.37
2018-07-08T14:10:33.854Z,100379.30
2018-07-08T14:13:01.454Z,100377.60
2018-07-08T14:15:29.162Z,100383.58
2018-07-08T14:17:56.779Z,100377.60
2018-07-08T14:20:24.451Z,100382.66
2018-07-08T14:22:52.697Z,100384.22
2018-07-08T14:25:20.866Z,100378.73
2018-07-08T14:27:48.830Z,100378.50
2018-07-08T14:30:16.574Z,100375.07
2018-07-08T14:32:44.216Z,100373.97
2018-07-08T14:35:11.882Z,100371.56
2018-07-08T14:37:39.604Z,100380.73
2018-07-08T14:40:07.267Z,100375.19
2018-07-08T14:42:34.985Z,100372.30
2018-07-08T14:45:02.670Z,100380.22
2018-07-08T14:47:30.446Z,100371.11
2018-07-08T14:49:58.095Z,100369.05
2018-07-08T14:52:25.750Z,100374.20
2018-07-08T14:54:53.379Z,100375.14
2018-07-08T14:57:21.080Z,100379.15
2018-07-08T14:59:48.691Z,100378.12
2018-07-08T15:02:16.371Z,100378.36
2018-07-08T15:04:44.062Z,100373.38
2018-07-08T15:07:11.593Z,100381.23
2018-07-08T15:09:39.226Z,100377.20
2018-07-08T15:12:06.893Z,100371.34
2018-07-08T15:14:34.511Z,100372.75
2018-07-08T15:17:02.139Z,100371.70
2018-07-08T15:19:29.733Z,100364.39
2018-07-08T15:21:57.527Z,100368.75
2018-07-08T15:24:25.163Z,100370.90
2018-07-08T15:26:52.818Z,100367.81
2018-07-08T15:29:20.490Z,100351.49
2018-07-08T15:31:48.201Z,100357.90
2018-07-08T15:34:15.877Z,100359.67
2018-07-08T15:36:51.389Z,100366.70
2018-07-08T15:39:19.074Z,100365.67
2018-07-08T15:41:46.750Z,100365.23
2018-07-08T15:44:14.415Z,100359.83
2018-07-08T15:46:42.135Z,100356.67
2018-07-08T15:49:09.782Z,100357.13
2018-07-08T15:51:37.549Z,100355.56
2018-07-08T15:54:05.297Z,100355.53
2018-07-08T15:56:32.906Z,100352.92
2018-07-08T15:59:00.548Z,100349.58
2018-07-08T16:01:28.153Z,100347.12
2018-07-08T16:03:55.747Z,100353.55
2018-07-08T16:06:23.374Z,100349.03
2018-07-08T16:08:51.002Z,100346.59
2018-07-08T16:11:18.605Z,100346.77
2018-07-08T16:13:46.229Z,100349.52
2018-07-08T16:16:13.837Z,100351.22
2018-07-08T16:18:41.730Z,100346.89
2018-07-08T16:21:09.395Z,100337.48
2018-07-08T16:23:37.090Z,100347.46
2018-07-08T16:26:04.767Z,100346.05
2018-07-08T16:28:32.473Z,100339.34
2018-07-08T16:31:00.983Z,100344.66
2018-07-08T16:33:28.609Z,100342.36
2018-07-08T16:35:56.885Z,100340.72
2018-07-08T16:38:24.493Z,100338.34
2018-07-08T16:40:53.530Z,100340.62
2018-07-08T16:43:21.215Z,100342.57
2018-07-08T16:45:48.961Z,100344.95
2018-07-08T16:48:16.573Z,100340.05
2018-07-08T16:50:44.253Z,100341.51
2018-07-08T16:53:11.891Z,100336.44
2018-07-08T16:55:39.533Z,100335.05
2018-07-08T16:58:07.155Z,100331.04
2018-07-08T17:00:34.826Z,100332.59
2018-07-08T17:03:02.485Z,100328.37
2018-07-08T17:05:30.250Z,100329.71
2018-07-08T17:07:57.879Z,100330.80
2018-07-08T17:10:36.035Z,100331.50
2018-07-08T17:13:03.706Z,100332.05
2018-07-08T17:15:31.361Z,100330.95
2018-07-08T17:17:59.054Z,100330.39
2018-07-08T17:20:26.661Z,100332.94
2018-07-08T17:22:54.746Z,100337.21
2018-07-08T17:25:22.486Z,100333.70
2018-07-08T17:27:50.099Z,100333.17
2018-07-08T17:30:18.094Z,100324.33
2018-07-08T17:32:45.926Z,100332.69
2018-07-08T17:35:13.590Z,100329.66
2018-07-08T17:37:41.190Z,100332.37
2018-07-08T17:40:08.804Z,100327.31
2018-07-08T17:42:36.450Z,100329.16
2018-07-08T17:45:04.718Z,100326.23
2018-07-08T17:47:32.387Z,100323.05
2018-07-08T17:50:00.757Z,100328.16
2018-07-08T17:52:28.738Z,100330.38
2018-07-08T17:54:56.392Z,100329.55
2018-07-08T17:57:24.097Z,100327.12
2018-07-08T17:59:52.085Z,100325.78
2018-07-08T18:02:19.722Z,100321.49
2018-07-08T18:04:47.386Z,100322.03
2018-07-08T18:07:15.741Z,100322.85
2018-07-08T18:09:43.451Z,100320.97
2018-07-08T18:12:11.147Z,100325.53
2018-07-08T18:14:38.815Z,100320.17
2018-07-08T18:17:06.466Z,100321.49
2018-07-08T18:19:34.086Z,100326.89
2018-07-08T18:22:01.911Z,100327.95
2018-07-08T18:24:29.554Z,100330.11
2018-07-08T18:26:57.250Z,100329.59
2018-07-08T18:29:24.934Z,100331.20
2018-07-08T18:31:52.600Z,100323.66
2018-07-08T18:34:20.220Z,100321.25
2018-07-08T18:36:47.850Z,100326.61
2018-07-08T18:39:15.550Z,100322.04
2018-07-08T18:41:43.178Z,100319.09
2018-07-08T18:44:10.802Z,100320.17
2018-07-08T18:46:38.505Z,100319.88
2018-07-08T18:49:06.105Z,100319.87
2018-07-08T18:51:33.905Z,100322.55
2018-07-08T18:54:01.566Z,100324.42
2018-07-08T18:56:29.346Z,100317.39
2018-07-08T18:58:58.690Z,100327.04
2018-07-08T19:01:26.394Z,100322.16
2018-07-08T19:03:54.249Z,100327.48
2018-07-08T19:06:21.925Z,100327.19
2018-07-08T19:08:49.666Z,100333.33
2018-07-08T19:11:17.334Z,100333.30
2018-07-08T19:13:45.010Z,100337.30
2018-07-08T19:16:12.640Z,100336.73
2018-07-08T19:18:40.267Z,100336.42
2018-07-08T19:21:08.041Z,100333.70
2018-07-08T19:23:35.847Z,100336.88
2018-07-08T19:26:03.649Z,100344.61
2018-07-08T19:28:31.270Z,100342.92
2018-07-08T19:30:58.916Z,100349.31
2018-07-08T19:33:26.640Z,100350.60
2018-07-08T19:35:54.469Z,100357.00
2018-07-08T19:38:22.256Z,100357.48
2018-07-08T19:40:50.534Z,100357.41
2018-07-08T19:43:18.122Z,100359.73
2018-07-08T19:45:45.858Z,100367.48
2018-07-08T19:48:13.498Z,100363.41
2018-07-08T19:50:41.164Z,100366.73
2018-07-08T19:53:09.128Z,100365.00
2018-07-08T19:55:36.829Z,100374.34
2018-07-08T19:58:04.463Z,100379.36
2018-07-08T20:00:32.126Z,100378.45
2018-07-08T20:03:00.606Z,100380.02
2018-07-08T20:05:28.333Z,100382.02
2018-07-08T20:07:56.265Z,100381.67
2018-07-08T20:10:23.881Z,100387.58
2018-07-08T20:12:51.503Z,100384.34
2018-07-08T20:15:19.228Z,100393.64
2018-07-08T20:17:46.902Z,100395.90
2018-07-08T20:20:14.532Z,100400.21
2018-07-08T20:22:42.277Z,100403.03
2018-07-08T20:25:09.925Z,100405.86
2018-07-08T20:27:38.222Z,100399.87
2018-07-08T20:30:05.878Z,100399.97
2018-07-08T20:32:33.467Z,100405.80
2018-07-08T20:35:01.266Z,100405.87
2018-07-08T20:37:29.116Z,100403.85
2018-07-08T20:39:56.895Z,100407.23
2018-07-08T20:42:24.528Z,100414.89
2018-07-08T20:44:52.315Z,100423.34
2018-07-08T20:47:20.650Z,100412.27
2018-07-08T20:49:48.646Z,100414.06
2018-07-08T20:52:16.330Z,100412.53
2018-07-08T20:54:44.585Z,100421.22
2018-07-08T20:57:12.215Z,100416.36
2018-07-08T20:59:39.958Z,100415.98
2018-07-08T21:02:07.674Z,100416.13
2018-07-08T21:04:36.093Z,100418.91
2018-07-08T21:07:04.167Z,100423.56
2018-07-08T21:09:31.980Z,100422.12
2018-07-08T21:11:59.718Z,100418.01
2018-07-08T21:14:27.462Z,100422.58
2018-07-08T21:16:55.066Z,100421.75
2018-07-08T21:19:22.770Z,100420.73
2018-07-08T21:21:50.380Z,100429.52
2018-07-08T21:24:17.982Z,100430.20
2018-07-08T21:26:45.586Z,100422.61
2018-07-08T21:29:13.770Z,100430.85
2018-07-08T21:31:41.463Z,100421.92
2018-07-08T21:34:09.162Z,100426.13
2018-07-08T21:36:36.810Z,100426.69
2018-07-08T21:39:06.849Z,100425.19
2018-07-08T21:41:34.498Z,100429.89
2018-07-08T21:44:02.146Z,100434.20
2018-07-08T21:47:01.072Z,100424.83
2018-07-08T21:49:28.798Z,100429.17
2018-07-08T21:51:56.517Z,100424.59
2018-07-08T21:54:24.247Z,100426.66
2018-07-08T21:56:51.922Z,100426.44
2018-07-08T21:59:19.566Z,100431.42
2018-07-08T22:01:59.536Z,100428.86
2018-07-08T22:04:28.322Z,100427.30
2018-07-08T22:07:01.718Z,100431.16
2018-07-08T22:09:29.356Z,100435.19
2018-07-08T22:11:57.222Z,100438.00
2018-07-08T22:14:24.907Z,100441.84
2018-07-08T22:16:52.554Z,100443.48
2018-07-08T22:19:20.250Z,100438.84
2018-07-08T22:21:47.998Z,100436.94
2018-07-08T22:24:15.726Z,100435.45
2018-07-08T22:26:43.466Z,100437.67
2018-07-08T22:29:11.394Z,100434.22
2018-07-08T22:31:39.070Z,100433.83
2018-07-08T22:34:06.718Z,100431.83
2018-07-08T22:36:34.323Z,100429.66
2018-07-08T22:39:02.035Z,100429.01
2018-07-08T22:41:29.809Z,100432.97
2018-07-08T22:43:57.433Z,100434.23
2018-07-08T22:46:25.088Z,100432.45
2018-07-08T22:48:52.718Z,100428.41
2018-07-08T22:51:20.725Z,100428.08
2018-07-08T22:53:48.431Z,100436.28
2018-07-08T22:56:16.056Z,100426.00
2018-07-08T22:58:43.802Z,100429.16
2018-07-08T23:01:29.531Z,100429.87
2018-07-08T23:04:00.275Z,100426.34
2018-07-08T23:06:27.938Z,100431.73
2018-07-08T23:08:55.642Z,100428.70
2018-07-08T23:11:24.070Z,100424.55
2018-07-08T23:13:52.870Z,100422.34
2018-07-08T23:16:21.146Z,100425.94
2018-07-08T23:18:48.807Z,100426.58
2018-07-08T23:21:16.433Z,100421.70
2018-07-08T23:23:44.142Z,100420.37
2018-07-08T23:26:11.806Z,100421.88
2018-07-08T23:28:39.417Z,100419.22
2018-07-08T23:31:07.670Z,100410.04
2018-07-08T23:33:35.407Z,100418.84
2018-07-08T23:36:03.676Z,100413.93
2018-07-08T23:38:31.643Z,100411.57
2018-07-08T23:41:00.219Z,100414.55
2018-07-08T23:43:28.141Z,100411.20
2018-07-08T23:45:55.743Z,100398.83
2018-07-08T23:48:23.362Z,100404.55
2018-07-08T23:50:50.993Z,100402.56
2018-07-08T23:53:18.630Z,100403.78
2018-07-08T23:55:46.289Z,100399.61
2018-07-08T23:58:13.975Z,100393.00
